sensor_id;sensor_type;location;lat;lon;timestamp;P1;durP1;ratioP1;P2;durP2;ratioP2
58758;SDS011;46777;47.482;19.054;2022-11-20T00:01:36;22.67;;;18.30;;
58758;SDS011;46777;47.482;19.054;2022-11-20T00:04:20;23.63;;;19.02;;
58758;SDS011;46777;47.482;19.054;2022-11-20T00:07:05;24.15;;;20.02;;
58758;SDS011;46777;47.482;19.054;2022-11-20T00:09:49;24.75;;;19.50;;
58758;SDS011;46777;47.482;19.054;2022-11-20T00:12:33;30.10;;;21.60;;
58758;SDS011;46777;47.482;19.054;2022-11-20T00:15:17;23.58;;;19.48;;
58758;SDS011;46777;47.482;19.054;2022-11-20T00:18:01;25.90;;;20.67;;
58758;SDS011;46777;47.482;19.054;2022-11-20T00:20:46;26.13;;;21.48;;
58758;SDS011;46777;47.482;19.054;2022-11-20T00:23:30;28.00;;;22.30;;
58758;SDS011;46777;47.482;19.054;2022-11-20T00:26:15;23.33;;;19.10;;
58758;SDS011;46777;47.482;19.054;2022-11-20T00:29:00;24.15;;;19.95;;
58758;SDS011;46777;47.482;19.054;2022-11-20T00:31:45;24.73;;;20.02;;
58758;SDS011;46777;47.482;19.054;2022-11-20T00:34:29;24.27;;;19.45;;
58758;SDS011;46777;47.482;19.054;2022-11-20T00:37:13;23.95;;;19.67;;
58758;SDS011;46777;47.482;19.054;2022-11-20T00:39:57;22.33;;;19.73;;
58758;SDS011;46777;47.482;19.054;2022-11-20T00:42:41;24.52;;;19.92;;
58758;SDS011;46777;47.482;19.054;2022-11-20T00:45:26;24.27;;;20.50;;
58758;SDS011;46777;47.482;19.054;2022-11-20T00:48:10;22.38;;;19.08;;
58758;SDS011;46777;47.482;19.054;2022-11-20T00:50:54;23.35;;;18.98;;
58758;SDS011;46777;47.482;19.054;2022-11-20T00:53:38;24.80;;;19.80;;
58758;SDS011;46777;47.482;19.054;2022-11-20T00:56:23;22.85;;;19.00;;
58758;SDS011;46777;47.482;19.054;2022-11-20T00:59:08;25.83;;;19.60;;
58758;SDS011;46777;47.482;19.054;2022-11-20T01:01:52;23.75;;;19.38;;
58758;SDS011;46777;47.482;19.054;2022-11-20T01:04:36;21.90;;;18.23;;
58758;SDS011;46777;47.482;19.054;2022-11-20T01:07:21;21.77;;;19.23;;
58758;SDS011;46777;47.482;19.054;2022-11-20T01:10:05;23.10;;;19.48;;
58758;SDS011;46777;47.482;19.054;2022-11-20T01:12:49;25.95;;;20.83;;
58758;SDS011;46777;47.482;19.054;2022-11-20T01:15:54;26.73;;;21.98;;
58758;SDS011;46777;47.482;19.054;2022-11-20T01:18:39;28.33;;;22.55;;
58758;SDS011;46777;47.482;19.054;2022-11-20T01:21:24;26.50;;;22.52;;
58758;SDS011;46777;47.482;19.054;2022-11-20T01:24:13;27.88;;;22.42;;
58758;SDS011;46777;47.482;19.054;2022-11-20T01:26:57;27.13;;;21.83;;
58758;SDS011;46777;47.482;19.054;2022-11-20T01:29:41;29.52;;;23.30;;
58758;SDS011;46777;47.482;19.054;2022-11-20T01:32:26;30.40;;;22.90;;
58758;SDS011;46777;47.482;19.054;2022-11-20T01:35:10;30.63;;;23.33;;
58758;SDS011;46777;47.482;19.054;2022-11-20T01:37:55;26.85;;;22.33;;
58758;SDS011;46777;47.482;19.054;2022-11-20T01:40:39;29.40;;;23.08;;
58758;SDS011;46777;47.482;19.054;2022-11-20T01:43:24;32.53;;;25.08;;
58758;SDS011;46777;47.482;19.054;2022-11-20T01:46:14;30.73;;;22.83;;
58758;SDS011;46777;47.482;19.054;2022-11-20T01:51:45;32.78;;;25.55;;
58758;SDS011;46777;47.482;19.054;2022-11-20T01:54:34;31.10;;;23.45;;
58758;SDS011;46777;47.482;19.054;2022-11-20T01:57:19;31.83;;;26.02;;
58758;SDS011;46777;47.482;19.054;2022-11-20T02:00:08;30.90;;;24.63;;
58758;SDS011;46777;47.482;19.054;2022-11-20T02:02:56;31.98;;;24.15;;
58758;SDS011;46777;47.482;19.054;2022-11-20T02:05:43;33.40;;;25.38;;
58758;SDS011;46777;47.482;19.054;2022-11-20T02:08:29;34.38;;;26.08;;
58758;SDS011;46777;47.482;19.054;2022-11-20T02:11:14;32.78;;;25.15;;
58758;SDS011;46777;47.482;19.054;2022-11-20T02:13:58;35.05;;;26.42;;
58758;SDS011;46777;47.482;19.054;2022-11-20T02:16:46;35.22;;;25.73;;
58758;SDS011;46777;47.482;19.054;2022-11-20T02:19:32;33.75;;;24.92;;
58758;SDS011;46777;47.482;19.054;2022-11-20T02:22:36;36.17;;;26.20;;
58758;SDS011;46777;47.482;19.054;2022-11-20T02:25:23;33.55;;;26.55;;
58758;SDS011;46777;47.482;19.054;2022-11-20T02:28:08;35.58;;;27.25;;
58758;SDS011;46777;47.482;19.054;2022-11-20T02:30:53;32.05;;;25.70;;
58758;SDS011;46777;47.482;19.054;2022-11-20T02:33:38;32.83;;;25.45;;
58758;SDS011;46777;47.482;19.054;2022-11-20T02:36:22;32.47;;;25.30;;
58758;SDS011;46777;47.482;19.054;2022-11-20T02:39:07;31.13;;;25.33;;
58758;SDS011;46777;47.482;19.054;2022-11-20T02:41:52;33.08;;;25.23;;
58758;SDS011;46777;47.482;19.054;2022-11-20T02:44:37;32.53;;;26.30;;
58758;SDS011;46777;47.482;19.054;2022-11-20T02:47:21;32.60;;;25.10;;
58758;SDS011;46777;47.482;19.054;2022-11-20T02:50:05;33.33;;;26.25;;
58758;SDS011;46777;47.482;19.054;2022-11-20T02:52:50;34.90;;;24.80;;
58758;SDS011;46777;47.482;19.054;2022-11-20T02:55:34;29.50;;;24.55;;
58758;SDS011;46777;47.482;19.054;2022-11-20T02:58:19;31.17;;;25.40;;
58758;SDS011;46777;47.482;19.054;2022-11-20T03:01:03;36.88;;;26.23;;
58758;SDS011;46777;47.482;19.054;2022-11-20T03:03:47;32.22;;;24.95;;
58758;SDS011;46777;47.482;19.054;2022-11-20T03:06:32;29.67;;;23.38;;
58758;SDS011;46777;47.482;19.054;2022-11-20T03:09:17;32.17;;;25.55;;
58758;SDS011;46777;47.482;19.054;2022-11-20T03:12:01;32.17;;;25.83;;
58758;SDS011;46777;47.482;19.054;2022-11-20T03:14:45;31.20;;;24.48;;
58758;SDS011;46777;47.482;19.054;2022-11-20T03:17:30;30.98;;;24.73;;
58758;SDS011;46777;47.482;19.054;2022-11-20T03:20:14;31.92;;;24.73;;
58758;SDS011;46777;47.482;19.054;2022-11-20T03:22:59;30.60;;;24.70;;
58758;SDS011;46777;47.482;19.054;2022-11-20T03:25:43;31.15;;;24.38;;
58758;SDS011;46777;47.482;19.054;2022-11-20T03:28:27;28.92;;;24.17;;
58758;SDS011;46777;47.482;19.054;2022-11-20T03:31:13;28.85;;;24.45;;
58758;SDS011;46777;47.482;19.054;2022-11-20T03:33:58;27.42;;;23.15;;
58758;SDS011;46777;47.482;19.054;2022-11-20T03:36:42;31.63;;;23.85;;
58758;SDS011;46777;47.482;19.054;2022-11-20T03:39:27;30.33;;;23.77;;
58758;SDS011;46777;47.482;19.054;2022-11-20T03:42:11;28.50;;;23.55;;
58758;SDS011;46777;47.482;19.054;2022-11-20T03:45:15;26.98;;;23.75;;
58758;SDS011;46777;47.482;19.054;2022-11-20T03:47:59;30.33;;;24.17;;
58758;SDS011;46777;47.482;19.054;2022-11-20T03:50:43;30.10;;;23.95;;
58758;SDS011;46777;47.482;19.054;2022-11-20T03:53:27;30.63;;;24.20;;
58758;SDS011;46777;47.482;19.054;2022-11-20T03:56:12;30.55;;;24.33;;
58758;SDS011;46777;47.482;19.054;2022-11-20T03:58:57;29.35;;;23.88;;
58758;SDS011;46777;47.482;19.054;2022-11-20T04:01:41;30.10;;;24.13;;
58758;SDS011;46777;47.482;19.054;2022-11-20T04:04:25;29.95;;;23.73;;
58758;SDS011;46777;47.482;19.054;2022-11-20T04:07:10;30.10;;;24.08;;
58758;SDS011;46777;47.482;19.054;2022-11-20T04:09:54;28.95;;;23.90;;
58758;SDS011;46777;47.482;19.054;2022-11-20T04:12:38;27.17;;;23.08;;
58758;SDS011;46777;47.482;19.054;2022-11-20T04:15:22;28.92;;;23.67;;
58758;SDS011;46777;47.482;19.054;2022-11-20T04:18:06;30.55;;;24.67;;
58758;SDS011;46777;47.482;19.054;2022-11-20T04:20:50;27.23;;;22.98;;
58758;SDS011;46777;47.482;19.054;2022-11-20T04:23:35;29.42;;;24.17;;
58758;SDS011;46777;47.482;19.054;2022-11-20T04:26:19;28.15;;;24.13;;
58758;SDS011;46777;47.482;19.054;2022-11-20T04:29:04;26.90;;;23.17;;
58758;SDS011;46777;47.482;19.054;2022-11-20T04:31:49;29.95;;;23.83;;
58758;SDS011;46777;47.482;19.054;2022-11-20T04:34:33;28.60;;;23.67;;
58758;SDS011;46777;47.482;19.054;2022-11-20T04:37:18;29.23;;;24.45;;
58758;SDS011;46777;47.482;19.054;2022-11-20T04:40:03;30.50;;;25.08;;
58758;SDS011;46777;47.482;19.054;2022-11-20T04:42:47;29.35;;;23.38;;
58758;SDS011;46777;47.482;19.054;2022-11-20T04:45:31;28.73;;;23.20;;
58758;SDS011;46777;47.482;19.054;2022-11-20T04:48:16;28.30;;;24.02;;
58758;SDS011;46777;47.482;19.054;2022-11-20T04:51:02;28.45;;;23.98;;
58758;SDS011;46777;47.482;19.054;2022-11-20T04:53:46;30.67;;;23.75;;
58758;SDS011;46777;47.482;19.054;2022-11-20T04:56:31;27.80;;;23.52;;
58758;SDS011;46777;47.482;19.054;2022-11-20T04:59:16;29.75;;;25.00;;
58758;SDS011;46777;47.482;19.054;2022-11-20T05:02:00;30.30;;;23.65;;
58758;SDS011;46777;47.482;19.054;2022-11-20T05:04:44;28.73;;;24.33;;
58758;SDS011;46777;47.482;19.054;2022-11-20T05:07:28;27.50;;;23.20;;
58758;SDS011;46777;47.482;19.054;2022-11-20T05:10:12;27.85;;;23.20;;
58758;SDS011;46777;47.482;19.054;2022-11-20T05:12:57;28.13;;;23.33;;
58758;SDS011;46777;47.482;19.054;2022-11-20T05:15:41;27.45;;;22.90;;
58758;SDS011;46777;47.482;19.054;2022-11-20T05:18:25;20.13;;;9.43;;
58758;SDS011;46777;47.482;19.054;2022-11-20T05:21:10;26.73;;;23.05;;
58758;SDS011;46777;47.482;19.054;2022-11-20T05:23:54;29.40;;;23.73;;
58758;SDS011;46777;47.482;19.054;2022-11-20T05:26:39;28.30;;;23.55;;
58758;SDS011;46777;47.482;19.054;2022-11-20T05:29:23;29.50;;;24.27;;
58758;SDS011;46777;47.482;19.054;2022-11-20T05:32:07;28.90;;;23.50;;
58758;SDS011;46777;47.482;19.054;2022-11-20T05:34:53;27.90;;;22.75;;
58758;SDS011;46777;47.482;19.054;2022-11-20T05:37:37;26.10;;;22.35;;
58758;SDS011;46777;47.482;19.054;2022-11-20T05:40:22;25.33;;;22.58;;
58758;SDS011;46777;47.482;19.054;2022-11-20T05:43:06;28.92;;;23.90;;
58758;SDS011;46777;47.482;19.054;2022-11-20T05:45:53;28.77;;;24.08;;
58758;SDS011;46777;47.482;19.054;2022-11-20T05:48:38;26.73;;;22.30;;
58758;SDS011;46777;47.482;19.054;2022-11-20T05:51:23;28.45;;;23.45;;
58758;SDS011;46777;47.482;19.054;2022-11-20T05:54:08;29.85;;;23.50;;
58758;SDS011;46777;47.482;19.054;2022-11-20T05:56:52;29.15;;;22.73;;
58758;SDS011;46777;47.482;19.054;2022-11-20T05:59:36;28.65;;;23.38;;
58758;SDS011;46777;47.482;19.054;2022-11-20T06:02:20;26.30;;;22.33;;
58758;SDS011;46777;47.482;19.054;2022-11-20T06:05:05;28.90;;;23.42;;
58758;SDS011;46777;47.482;19.054;2022-11-20T06:07:49;27.85;;;22.35;;
58758;SDS011;46777;47.482;19.054;2022-11-20T06:10:33;25.20;;;22.00;;
58758;SDS011;46777;47.482;19.054;2022-11-20T06:13:17;26.17;;;22.23;;
58758;SDS011;46777;47.482;19.054;2022-11-20T06:16:02;27.23;;;22.27;;
58758;SDS011;46777;47.482;19.054;2022-11-20T06:18:47;28.13;;;23.45;;
58758;SDS011;46777;47.482;19.054;2022-11-20T06:21:31;27.35;;;23.17;;
58758;SDS011;46777;47.482;19.054;2022-11-20T06:24:15;25.83;;;22.50;;
58758;SDS011;46777;47.482;19.054;2022-11-20T06:27:00;25.38;;;21.55;;
58758;SDS011;46777;47.482;19.054;2022-11-20T06:29:44;27.42;;;22.42;;
58758;SDS011;46777;47.482;19.054;2022-11-20T06:32:28;23.75;;;20.08;;
58758;SDS011;46777;47.482;19.054;2022-11-20T06:35:13;26.30;;;21.45;;
58758;SDS011;46777;47.482;19.054;2022-11-20T06:37:57;27.08;;;21.90;;
58758;SDS011;46777;47.482;19.054;2022-11-20T06:40:42;23.88;;;20.30;;
58758;SDS011;46777;47.482;19.054;2022-11-20T06:43:28;23.58;;;19.80;;
58758;SDS011;46777;47.482;19.054;2022-11-20T06:46:12;25.90;;;21.27;;
58758;SDS011;46777;47.482;19.054;2022-11-20T06:48:57;22.05;;;19.42;;
58758;SDS011;46777;47.482;19.054;2022-11-20T06:51:42;23.67;;;20.13;;
58758;SDS011;46777;47.482;19.054;2022-11-20T06:54:26;24.90;;;19.73;;
58758;SDS011;46777;47.482;19.054;2022-11-20T06:57:10;21.92;;;19.55;;
58758;SDS011;46777;47.482;19.054;2022-11-20T06:59:55;22.63;;;19.90;;
58758;SDS011;46777;47.482;19.054;2022-11-20T07:02:39;23.85;;;20.48;;
58758;SDS011;46777;47.482;19.054;2022-11-20T07:05:23;22.90;;;20.05;;
58758;SDS011;46777;47.482;19.054;2022-11-20T07:08:07;22.10;;;19.08;;
58758;SDS011;46777;47.482;19.054;2022-11-20T07:10:52;23.83;;;19.67;;
58758;SDS011;46777;47.482;19.054;2022-11-20T07:13:36;24.33;;;20.13;;
58758;SDS011;46777;47.482;19.054;2022-11-20T07:16:20;22.52;;;19.25;;
58758;SDS011;46777;47.482;19.054;2022-11-20T07:19:04;23.05;;;19.77;;
58758;SDS011;46777;47.482;19.054;2022-11-20T07:21:49;22.33;;;19.73;;
58758;SDS011;46777;47.482;19.054;2022-11-20T07:24:33;22.70;;;20.20;;
58758;SDS011;46777;47.482;19.054;2022-11-20T07:27:17;23.98;;;20.60;;
58758;SDS011;46777;47.482;19.054;2022-11-20T07:30:02;23.23;;;20.10;;
58758;SDS011;46777;47.482;19.054;2022-11-20T07:32:47;24.20;;;20.17;;
58758;SDS011;46777;47.482;19.054;2022-11-20T07:35:31;24.10;;;21.40;;
58758;SDS011;46777;47.482;19.054;2022-11-20T07:38:16;26.52;;;21.33;;
58758;SDS011;46777;47.482;19.054;2022-11-20T07:41:00;23.85;;;21.08;;
58758;SDS011;46777;47.482;19.054;2022-11-20T07:43:45;24.90;;;21.55;;
58758;SDS011;46777;47.482;19.054;2022-11-20T07:46:29;24.55;;;21.00;;
58758;SDS011;46777;47.482;19.054;2022-11-20T07:49:13;24.20;;;21.15;;
58758;SDS011;46777;47.482;19.054;2022-11-20T07:51:57;23.65;;;20.42;;
58758;SDS011;46777;47.482;19.054;2022-11-20T07:54:42;24.90;;;21.63;;
58758;SDS011;46777;47.482;19.054;2022-11-20T07:57:26;23.80;;;20.27;;
58758;SDS011;46777;47.482;19.054;2022-11-20T08:00:11;24.50;;;21.45;;
58758;SDS011;46777;47.482;19.054;2022-11-20T08:02:55;23.85;;;21.15;;
58758;SDS011;46777;47.482;19.054;2022-11-20T08:05:40;24.17;;;21.58;;
58758;SDS011;46777;47.482;19.054;2022-11-20T08:08:24;26.77;;;21.63;;
58758;SDS011;46777;47.482;19.054;2022-11-20T08:11:08;26.10;;;21.25;;
58758;SDS011;46777;47.482;19.054;2022-11-20T08:14:11;25.02;;;20.55;;
58758;SDS011;46777;47.482;19.054;2022-11-20T08:16:55;24.65;;;19.88;;
58758;SDS011;46777;47.482;19.054;2022-11-20T08:19:40;25.45;;;21.60;;
58758;SDS011;46777;47.482;19.054;2022-11-20T08:22:24;27.52;;;21.13;;
58758;SDS011;46777;47.482;19.054;2022-11-20T08:25:09;27.15;;;21.77;;
58758;SDS011;46777;47.482;19.054;2022-11-20T08:27:53;26.10;;;22.08;;
58758;SDS011;46777;47.482;19.054;2022-11-20T08:30:37;25.85;;;20.77;;
58758;SDS011;46777;47.482;19.054;2022-11-20T08:33:22;25.13;;;20.83;;
58758;SDS011;46777;47.482;19.054;2022-11-20T08:36:06;24.63;;;21.15;;
58758;SDS011;46777;47.482;19.054;2022-11-20T08:38:51;27.85;;;21.38;;
58758;SDS011;46777;47.482;19.054;2022-11-20T08:41:35;24.73;;;21.58;;
58758;SDS011;46777;47.482;19.054;2022-11-20T08:44:20;24.95;;;20.23;;
58758;SDS011;46777;47.482;19.054;2022-11-20T08:47:05;22.42;;;19.75;;
58758;SDS011;46777;47.482;19.054;2022-11-20T08:49:49;26.33;;;21.75;;
58758;SDS011;46777;47.482;19.054;2022-11-20T08:52:33;22.92;;;19.80;;
58758;SDS011;46777;47.482;19.054;2022-11-20T08:55:18;26.35;;;21.77;;
58758;SDS011;46777;47.482;19.054;2022-11-20T08:58:05;26.40;;;21.90;;
58758;SDS011;46777;47.482;19.054;2022-11-20T09:00:49;24.80;;;21.85;;
58758;SDS011;46777;47.482;19.054;2022-11-20T09:03:34;26.83;;;22.42;;
58758;SDS011;46777;47.482;19.054;2022-11-20T09:06:18;25.25;;;20.88;;
58758;SDS011;46777;47.482;19.054;2022-11-20T09:09:02;24.33;;;21.02;;
58758;SDS011;46777;47.482;19.054;2022-11-20T09:11:47;25.52;;;21.85;;
58758;SDS011;46777;47.482;19.054;2022-11-20T09:14:31;24.60;;;20.42;;
58758;SDS011;46777;47.482;19.054;2022-11-20T09:17:15;24.80;;;21.00;;
58758;SDS011;46777;47.482;19.054;2022-11-20T09:20:01;24.88;;;20.85;;
58758;SDS011;46777;47.482;19.054;2022-11-20T09:22:45;27.60;;;21.17;;
58758;SDS011;46777;47.482;19.054;2022-11-20T09:25:29;23.65;;;20.27;;
58758;SDS011;46777;47.482;19.054;2022-11-20T09:28:13;22.77;;;19.60;;
58758;SDS011;46777;47.482;19.054;2022-11-20T09:30:58;23.55;;;19.33;;
58758;SDS011;46777;47.482;19.054;2022-11-20T09:33:42;24.92;;;19.90;;
58758;SDS011;46777;47.482;19.054;2022-11-20T09:36:27;23.17;;;20.05;;
58758;SDS011;46777;47.482;19.054;2022-11-20T09:39:11;24.17;;;21.58;;
58758;SDS011;46777;47.482;19.054;2022-11-20T09:45:05;25.52;;;22.23;;
58758;SDS011;46777;47.482;19.054;2022-11-20T09:51:46;25.42;;;22.70;;
58758;SDS011;46777;47.482;19.054;2022-11-20T09:57:55;27.08;;;22.20;;
58758;SDS011;46777;47.482;19.054;2022-11-20T10:00:09;26.00;;;22.52;;
58758;SDS011;46777;47.482;19.054;2022-11-20T10:03:00;25.85;;;22.80;;
58758;SDS011;46777;47.482;19.054;2022-11-20T10:05:47;26.52;;;23.63;;
58758;SDS011;46777;47.482;19.054;2022-11-20T10:08:45;26.70;;;22.98;;
58758;SDS011;46777;47.482;19.054;2022-11-20T10:11:48;26.15;;;23.13;;
58758;SDS011;46777;47.482;19.054;2022-11-20T10:14:54;25.95;;;23.13;;
58758;SDS011;46777;47.482;19.054;2022-11-20T10:24:01;27.40;;;23.90;;
58758;SDS011;46777;47.482;19.054;2022-11-20T10:30:03;27.30;;;24.08;;
58758;SDS011;46777;47.482;19.054;2022-11-20T10:32:52;26.27;;;23.60;;
58758;SDS011;46777;47.482;19.054;2022-11-20T10:35:40;27.63;;;23.92;;
58758;SDS011;46777;47.482;19.054;2022-11-20T10:38:48;26.73;;;23.85;;
58758;SDS011;46777;47.482;19.054;2022-11-20T10:41:40;25.98;;;22.75;;
58758;SDS011;46777;47.482;19.054;2022-11-20T10:44:28;28.83;;;23.45;;
58758;SDS011;46777;47.482;19.054;2022-11-20T10:47:31;27.42;;;23.20;;
58758;SDS011;46777;47.482;19.054;2022-11-20T10:50:18;26.02;;;23.23;;
58758;SDS011;46777;47.482;19.054;2022-11-20T10:56:07;26.42;;;23.27;;
58758;SDS011;46777;47.482;19.054;2022-11-20T11:01:41;26.70;;;23.80;;
58758;SDS011;46777;47.482;19.054;2022-11-20T11:07:17;25.50;;;22.80;;
58758;SDS011;46777;47.482;19.054;2022-11-20T11:12:57;27.27;;;23.05;;
58758;SDS011;46777;47.482;19.054;2022-11-20T11:15:42;26.83;;;23.90;;
58758;SDS011;46777;47.482;19.054;2022-11-20T11:18:35;26.70;;;23.80;;
58758;SDS011;46777;47.482;19.054;2022-11-20T11:21:23;27.85;;;24.85;;
58758;SDS011;46777;47.482;19.054;2022-11-20T11:24:15;27.73;;;24.58;;
58758;SDS011;46777;47.482;19.054;2022-11-20T11:27:03;26.95;;;24.08;;
58758;SDS011;46777;47.482;19.054;2022-11-20T11:29:50;27.63;;;24.15;;
58758;SDS011;46777;47.482;19.054;2022-11-20T11:32:45;28.58;;;24.75;;
58758;SDS011;46777;47.482;19.054;2022-11-20T11:35:29;27.58;;;24.58;;
58758;SDS011;46777;47.482;19.054;2022-11-20T11:38:15;26.02;;;23.08;;
58758;SDS011;46777;47.482;19.054;2022-11-20T11:41:00;28.27;;;24.05;;
58758;SDS011;46777;47.482;19.054;2022-11-20T11:43:55;27.63;;;23.25;;
58758;SDS011;46777;47.482;19.054;2022-11-20T11:46:59;26.15;;;23.35;;
58758;SDS011;46777;47.482;19.054;2022-11-20T11:49:43;24.65;;;21.98;;
58758;SDS011;46777;47.482;19.054;2022-11-20T11:52:27;25.42;;;22.65;;
58758;SDS011;46777;47.482;19.054;2022-11-20T11:55:14;26.02;;;23.13;;
58758;SDS011;46777;47.482;19.054;2022-11-20T12:01:07;25.92;;;23.10;;
58758;SDS011;46777;47.482;19.054;2022-11-20T12:06:41;25.30;;;21.80;;
58758;SDS011;46777;47.482;19.054;2022-11-20T12:09:34;25.10;;;21.65;;
58758;SDS011;46777;47.482;19.054;2022-11-20T12:12:25;24.92;;;21.58;;
58758;SDS011;46777;47.482;19.054;2022-11-20T12:15:11;22.30;;;19.63;;
58758;SDS011;46777;47.482;19.054;2022-11-20T12:17:57;21.58;;;19.27;;
58758;SDS011;46777;47.482;19.054;2022-11-20T12:20:43;20.88;;;18.35;;
58758;SDS011;46777;47.482;19.054;2022-11-20T12:26:15;20.52;;;17.88;;
58758;SDS011;46777;47.482;19.054;2022-11-20T12:29:13;21.35;;;18.05;;
58758;SDS011;46777;47.482;19.054;2022-11-20T12:38:08;24.10;;;19.98;;
58758;SDS011;46777;47.482;19.054;2022-11-20T12:43:47;22.25;;;18.95;;
58758;SDS011;46777;47.482;19.054;2022-11-20T12:47:19;22.58;;;19.48;;
58758;SDS011;46777;47.482;19.054;2022-11-20T12:53:03;22.45;;;18.98;;
58758;SDS011;46777;47.482;19.054;2022-11-20T12:58:39;22.30;;;18.77;;
58758;SDS011;46777;47.482;19.054;2022-11-20T13:01:29;20.48;;;17.77;;
58758;SDS011;46777;47.482;19.054;2022-11-20T13:07:19;26.25;;;21.17;;
58758;SDS011;46777;47.482;19.054;2022-11-20T13:10:05;24.92;;;20.33;;
58758;SDS011;46777;47.482;19.054;2022-11-20T13:13:00;21.08;;;18.13;;
58758;SDS011;46777;47.482;19.054;2022-11-20T13:18:37;22.08;;;19.02;;
58758;SDS011;46777;47.482;19.054;2022-11-20T13:21:22;21.98;;;19.23;;
58758;SDS011;46777;47.482;19.054;2022-11-20T13:30:00;22.88;;;20.48;;
58758;SDS011;46777;47.482;19.054;2022-11-20T13:35:37;22.45;;;20.00;;
58758;SDS011;46777;47.482;19.054;2022-11-20T13:38:21;22.25;;;19.30;;
58758;SDS011;46777;47.482;19.054;2022-11-20T13:41:07;23.13;;;20.40;;
58758;SDS011;46777;47.482;19.054;2022-11-20T13:46:56;22.83;;;20.45;;
58758;SDS011;46777;47.482;19.054;2022-11-20T13:49:40;24.50;;;21.88;;
58758;SDS011;46777;47.482;19.054;2022-11-20T13:55:17;24.48;;;21.60;;
58758;SDS011;46777;47.482;19.054;2022-11-20T13:58:10;25.55;;;22.75;;
58758;SDS011;46777;47.482;19.054;2022-11-20T14:04:08;25.92;;;21.42;;
58758;SDS011;46777;47.482;19.054;2022-11-20T14:06:53;24.15;;;20.95;;
58758;SDS011;46777;47.482;19.054;2022-11-20T14:09:38;25.33;;;20.63;;
58758;SDS011;46777;47.482;19.054;2022-11-20T14:12:26;25.83;;;21.75;;
58758;SDS011;46777;47.482;19.054;2022-11-20T14:15:31;25.73;;;21.38;;
58758;SDS011;46777;47.482;19.054;2022-11-20T14:18:19;24.73;;;20.77;;
58758;SDS011;46777;47.482;19.054;2022-11-20T14:21:08;23.52;;;20.35;;
58758;SDS011;46777;47.482;19.054;2022-11-20T14:23:53;24.95;;;21.35;;
58758;SDS011;46777;47.482;19.054;2022-11-20T14:26:42;25.80;;;21.33;;
58758;SDS011;46777;47.482;19.054;2022-11-20T14:29:27;26.48;;;20.55;;
58758;SDS011;46777;47.482;19.054;2022-11-20T14:32:14;25.98;;;21.45;;
58758;SDS011;46777;47.482;19.054;2022-11-20T14:35:01;25.80;;;20.50;;
58758;SDS011;46777;47.482;19.054;2022-11-20T14:37:47;27.67;;;22.88;;
58758;SDS011;46777;47.482;19.054;2022-11-20T14:40:32;24.42;;;21.05;;
58758;SDS011;46777;47.482;19.054;2022-11-20T14:46:04;25.73;;;21.38;;
58758;SDS011;46777;47.482;19.054;2022-11-20T14:48:50;26.42;;;21.40;;
58758;SDS011;46777;47.482;19.054;2022-11-20T14:51:36;26.02;;;21.33;;
58758;SDS011;46777;47.482;19.054;2022-11-20T14:54:25;25.58;;;22.30;;
58758;SDS011;46777;47.482;19.054;2022-11-20T14:57:20;26.83;;;22.10;;
58758;SDS011;46777;47.482;19.054;2022-11-20T15:02:58;27.65;;;21.30;;
58758;SDS011;46777;47.482;19.054;2022-11-20T15:05:49;25.70;;;20.88;;
58758;SDS011;46777;47.482;19.054;2022-11-20T15:08:34;26.70;;;21.83;;
58758;SDS011;46777;47.482;19.054;2022-11-20T15:11:20;25.20;;;20.15;;
58758;SDS011;46777;47.482;19.054;2022-11-20T15:14:08;25.13;;;21.55;;
58758;SDS011;46777;47.482;19.054;2022-11-20T15:16:53;23.50;;;19.30;;
58758;SDS011;46777;47.482;19.054;2022-11-20T15:19:37;24.17;;;18.38;;
58758;SDS011;46777;47.482;19.054;2022-11-20T15:22:22;20.75;;;17.55;;
58758;SDS011;46777;47.482;19.054;2022-11-20T15:25:15;23.42;;;19.50;;
58758;SDS011;46777;47.482;19.054;2022-11-20T15:28:00;24.50;;;20.17;;
58758;SDS011;46777;47.482;19.054;2022-11-20T15:30:45;24.50;;;20.33;;
58758;SDS011;46777;47.482;19.054;2022-11-20T15:33:31;26.48;;;22.48;;
58758;SDS011;46777;47.482;19.054;2022-11-20T15:36:15;27.77;;;22.50;;
58758;SDS011;46777;47.482;19.054;2022-11-20T15:38:59;24.63;;;20.38;;
58758;SDS011;46777;47.482;19.054;2022-11-20T15:41:43;24.33;;;19.85;;
58758;SDS011;46777;47.482;19.054;2022-11-20T15:44:28;26.83;;;21.27;;
58758;SDS011;46777;47.482;19.054;2022-11-20T15:47:12;26.35;;;21.02;;
58758;SDS011;46777;47.482;19.054;2022-11-20T15:49:56;25.92;;;20.40;;
58758;SDS011;46777;47.482;19.054;2022-11-20T15:52:41;26.38;;;22.10;;
58758;SDS011;46777;47.482;19.054;2022-11-20T15:55:25;24.80;;;21.08;;
58758;SDS011;46777;47.482;19.054;2022-11-20T15:58:10;27.70;;;21.00;;
58758;SDS011;46777;47.482;19.054;2022-11-20T16:00:54;22.90;;;18.75;;
58758;SDS011;46777;47.482;19.054;2022-11-20T16:03:38;24.52;;;19.95;;
58758;SDS011;46777;47.482;19.054;2022-11-20T16:06:23;24.63;;;20.20;;
58758;SDS011;46777;47.482;19.054;2022-11-20T16:09:07;27.85;;;20.38;;
58758;SDS011;46777;47.482;19.054;2022-11-20T16:11:51;26.05;;;20.30;;
58758;SDS011;46777;47.482;19.054;2022-11-20T16:14:36;22.70;;;18.70;;
58758;SDS011;46777;47.482;19.054;2022-11-20T16:17:39;23.80;;;20.08;;
58758;SDS011;46777;47.482;19.054;2022-11-20T16:20:26;21.50;;;17.60;;
58758;SDS011;46777;47.482;19.054;2022-11-20T16:23:10;21.92;;;17.60;;
58758;SDS011;46777;47.482;19.054;2022-11-20T16:25:55;20.65;;;17.00;;
58758;SDS011;46777;47.482;19.054;2022-11-20T16:28:39;20.17;;;17.10;;
58758;SDS011;46777;47.482;19.054;2022-11-20T16:31:24;20.88;;;17.15;;
58758;SDS011;46777;47.482;19.054;2022-11-20T16:34:08;20.30;;;16.80;;
58758;SDS011;46777;47.482;19.054;2022-11-20T16:36:52;22.70;;;18.73;;
58758;SDS011;46777;47.482;19.054;2022-11-20T16:39:37;23.15;;;18.95;;
58758;SDS011;46777;47.482;19.054;2022-11-20T16:42:21;23.38;;;18.38;;
58758;SDS011;46777;47.482;19.054;2022-11-20T16:45:06;26.02;;;19.58;;
58758;SDS011;46777;47.482;19.054;2022-11-20T16:47:50;24.20;;;19.50;;
58758;SDS011;46777;47.482;19.054;2022-11-20T16:50:34;23.60;;;18.88;;
58758;SDS011;46777;47.482;19.054;2022-11-20T16:53:19;24.02;;;19.45;;
58758;SDS011;46777;47.482;19.054;2022-11-20T16:56:11;21.52;;;17.23;;
58758;SDS011;46777;47.482;19.054;2022-11-20T16:58:56;24.23;;;18.42;;
58758;SDS011;46777;47.482;19.054;2022-11-20T17:01:41;23.40;;;18.58;;
58758;SDS011;46777;47.482;19.054;2022-11-20T17:04:26;25.48;;;19.83;;
58758;SDS011;46777;47.482;19.054;2022-11-20T17:07:11;24.40;;;20.27;;
58758;SDS011;46777;47.482;19.054;2022-11-20T17:09:55;23.17;;;19.75;;
58758;SDS011;46777;47.482;19.054;2022-11-20T17:12:39;26.35;;;22.25;;
58758;SDS011;46777;47.482;19.054;2022-11-20T17:15:23;28.98;;;22.52;;
58758;SDS011;46777;47.482;19.054;2022-11-20T17:18:08;28.60;;;22.58;;
58758;SDS011;46777;47.482;19.054;2022-11-20T17:20:52;26.85;;;22.33;;
58758;SDS011;46777;47.482;19.054;2022-11-20T17:23:38;27.48;;;22.48;;